createdAt,value
2022-11-21T00:27:44.862Z,96869.69
2022-11-21T00:57:49.066Z,96874.25
2022-11-21T01:27:53.235Z,96856.38
2022-11-21T01:57:57.611Z,96851.50
2022-11-21T02:28:04.315Z,96884.94
2022-11-21T02:58:08.515Z,96878.19
2022-11-21T03:28:12.877Z,96875.94
2022-11-21T03:58:17.047Z,96895.81
2022-11-21T04:28:23.195Z,96899.75
2022-11-21T04:58:27.335Z,96914.53
2022-11-21T05:28:31.505Z,96927.13
2022-11-21T05:58:35.844Z,96910.03
2022-11-21T06:28:41.184Z,96914.16
2022-11-21T06:58:45.434Z,96914.66
2022-11-21T07:28:49.772Z,96929.53
2022-11-21T07:58:54.309Z,96926.00
2022-11-21T08:29:00.018Z,96918.75
2022-11-21T08:59:04.684Z,96909.28
2022-11-21T09:29:11.006Z,96904.22
2022-11-21T09:59:26.437Z,96891.25
2022-11-21T10:29:33.726Z,96849.63
2022-11-21T10:59:37.962Z,96818.75
2022-11-21T11:29:52.969Z,96774.50
2022-11-21T12:00:05.174Z,96716.56
2022-11-21T12:30:39.067Z,96701.88
2022-11-21T13:00:52.947Z,96648.19
2022-11-21T13:30:57.991Z,96598.09
2022-11-21T14:01:26.390Z,96527.88
2022-11-21T14:31:30.647Z,96468.84
2022-11-21T15:01:35.668Z,96439.88
2022-11-21T15:31:40.061Z,96350.34
2022-11-21T16:01:44.171Z,96299.91
2022-11-21T16:31:51.171Z,96243.16
2022-11-21T17:01:55.335Z,96203.22
2022-11-21T17:31:59.504Z,96112.31
2022-11-21T18:02:03.808Z,96129.06
2022-11-21T18:32:08.162Z,96184.94
2022-11-21T19:02:12.484Z,96142.72
2022-11-21T19:32:16.861Z,96088.69
2022-11-21T20:02:22.354Z,96043.53
2022-11-21T20:32:28.346Z,96012.66
2022-11-21T21:02:33.308Z,95997.19
2022-11-21T21:32:37.561Z,95971.69
2022-11-21T22:02:42.014Z,95935.47
2022-11-21T22:32:46.615Z,95919.28
2022-11-21T23:02:51.026Z,95892.81
2022-11-21T23:32:55.095Z,95865.50
